QTR63F OTHH-LOWW
Flight info
| Callsign | QTR63F |
|---|---|
| Flight time | N/A |
| Altitude | 38000 |
| Route | DATRI2W/34L DATRI L564 MIGMA M628 AMBAG M321 KSA T503 OVANO L768 FIRAS R655 LEBOR UR655 BALMA L620 VESAR UN135 IMR UN127 RIKSO DCT DISOR DCT LONTA UL608 DOLEV DCT GUBOK DCT OBUTI OBUTI2W |
| Aircraft | A359/H-SDE2E3GHIJ3J4J5LM1ORWXY/LB1D1 |
Departure
| Time | N/A |
|---|---|
| Airport | Hamad International Airport (OTHH) |
Arrival
| Time | 2026-05-03 21:45 |
|---|---|
| Airport | Vienna International Airport (LOWW) |
| Time | Latitude | Longitude | Altitude | Speed | Heading |
|---|---|---|---|---|---|
| 2026-05-03 20:15 | 40.97964 | 23.18824 | 38127 ft | 475 kts | 313° |
| 2026-05-03 20:15 | 41.02188 | 23.12082 | 38128 ft | 476 kts | 313° |
| 2026-05-03 20:16 | 41.06396 | 23.05347 | 38130 ft | 473 kts | 313° |
| 2026-05-03 20:16 | 41.10567 | 22.98656 | 38129 ft | 469 kts | 313° |
| 2026-05-03 20:17 | 41.14720 | 22.91984 | 38125 ft | 469 kts | 313° |
| 2026-05-03 20:17 | 41.18867 | 22.85307 | 38131 ft | 469 kts | 313° |
| 2026-05-03 20:18 | 41.23012 | 22.78617 | 38131 ft | 469 kts | 313° |
| 2026-05-03 20:18 | 41.27193 | 22.71989 | 38127 ft | 466 kts | 315° |
| 2026-05-03 20:19 | 41.31572 | 22.65645 | 38136 ft | 465 kts | 317° |
| 2026-05-03 20:19 | 41.35974 | 22.59342 | 38138 ft | 465 kts | 316° |
| 2026-05-03 20:20 | 41.40367 | 22.52957 | 38147 ft | 469 kts | 316° |
| 2026-05-03 20:20 | 41.44754 | 22.46508 | 38151 ft | 470 kts | 316° |
| 2026-05-03 20:21 | 41.49123 | 22.40054 | 38149 ft | 467 kts | 316° |
| 2026-05-03 20:21 | 41.53459 | 22.33642 | 38156 ft | 465 kts | 316° |
| 2026-05-03 20:22 | 41.57789 | 22.27230 | 38156 ft | 465 kts | 316° |
| 2026-05-03 20:22 | 41.62115 | 22.20813 | 38156 ft | 465 kts | 316° |
| 2026-05-03 20:23 | 41.66440 | 22.14381 | 38161 ft | 466 kts | 316° |
| 2026-05-03 20:23 | 41.70036 | 22.09022 | 38162 ft | 465 kts | 316° |
| 2026-05-03 20:24 | 41.74349 | 22.02580 | 38162 ft | 464 kts | 316° |
| 2026-05-03 20:24 | 41.78658 | 21.96133 | 38169 ft | 464 kts | 316° |
| 2026-05-03 20:25 | 41.82963 | 21.89678 | 38172 ft | 464 kts | 316° |
| 2026-05-03 20:25 | 41.87265 | 21.83212 | 38180 ft | 464 kts | 316° |
| 2026-05-03 20:26 | 41.91561 | 21.76740 | 38176 ft | 463 kts | 315° |
| 2026-05-03 20:26 | 41.95834 | 21.70289 | 38183 ft | 461 kts | 315° |
| 2026-05-03 20:27 | 42.00095 | 21.63842 | 38184 ft | 461 kts | 315° |
| 2026-05-03 20:27 | 42.04355 | 21.57385 | 38183 ft | 461 kts | 315° |
| 2026-05-03 20:28 | 42.08607 | 21.50924 | 38176 ft | 461 kts | 315° |
| 2026-05-03 20:28 | 42.12852 | 21.44459 | 38178 ft | 461 kts | 315° |
| 2026-05-03 20:29 | 42.17098 | 21.37977 | 38180 ft | 461 kts | 315° |
| 2026-05-03 20:29 | 42.21277 | 21.31391 | 38180 ft | 463 kts | 314° |
| 2026-05-03 20:30 | 42.25428 | 21.24746 | 38185 ft | 463 kts | 314° |
| 2026-05-03 20:30 | 42.29589 | 21.18096 | 38184 ft | 463 kts | 314° |
| 2026-05-03 20:31 | 42.33752 | 21.11455 | 38178 ft | 463 kts | 314° |
| 2026-05-03 20:31 | 42.37897 | 21.04831 | 38200 ft | 460 kts | 314° |
| 2026-05-03 20:32 | 42.42030 | 20.98215 | 38203 ft | 460 kts | 314° |
| 2026-05-03 20:32 | 42.46155 | 20.91596 | 38205 ft | 460 kts | 314° |
| 2026-05-03 20:33 | 42.50280 | 20.84962 | 38203 ft | 461 kts | 314° |
| 2026-05-03 20:33 | 42.54385 | 20.78347 | 38206 ft | 462 kts | 314° |
| 2026-05-03 20:34 | 42.58507 | 20.71686 | 38200 ft | 461 kts | 314° |
| 2026-05-03 20:34 | 42.62623 | 20.65019 | 38191 ft | 460 kts | 314° |
| 2026-05-03 20:35 | 42.66733 | 20.58348 | 38179 ft | 461 kts | 314° |
| 2026-05-03 20:35 | 42.70841 | 20.51666 | 38180 ft | 461 kts | 314° |
| 2026-05-03 20:36 | 42.74945 | 20.44974 | 38167 ft | 460 kts | 314° |
| 2026-05-03 20:36 | 42.79027 | 20.38302 | 38185 ft | 459 kts | 314° |
| 2026-05-03 20:37 | 42.83206 | 20.31767 | 38181 ft | 455 kts | 320° |
| 2026-05-03 20:37 | 42.88026 | 20.26225 | 38188 ft | 453 kts | 324° |
| 2026-05-03 20:38 | 42.92982 | 20.20941 | 38192 ft | 452 kts | 325° |
| 2026-05-03 20:38 | 42.97961 | 20.15697 | 38194 ft | 452 kts | 325° |
| 2026-05-03 20:39 | 43.02931 | 20.10436 | 38192 ft | 451 kts | 325° |
| 2026-05-03 20:39 | 43.07873 | 20.05177 | 38192 ft | 450 kts | 325° |
| 2026-05-03 20:40 | 43.12802 | 19.99914 | 38191 ft | 450 kts | 325° |
| 2026-05-03 20:40 | 43.17734 | 19.94637 | 38193 ft | 449 kts | 325° |
| 2026-05-03 20:41 | 43.22658 | 19.89358 | 38189 ft | 449 kts | 325° |
| 2026-05-03 20:41 | 43.27589 | 19.84061 | 38188 ft | 451 kts | 325° |
| 2026-05-03 20:42 | 43.32528 | 19.78743 | 38186 ft | 451 kts | 325° |
| 2026-05-03 20:42 | 43.37463 | 19.73421 | 38193 ft | 451 kts | 325° |
| 2026-05-03 20:43 | 43.42393 | 19.68090 | 38191 ft | 451 kts | 325° |
| 2026-05-03 20:43 | 43.47324 | 19.62746 | 38178 ft | 451 kts | 324° |
| 2026-05-03 20:44 | 43.52256 | 19.57391 | 38169 ft | 452 kts | 324° |
| 2026-05-03 20:44 | 43.57196 | 19.52016 | 38171 ft | 453 kts | 324° |
| 2026-05-03 20:45 | 43.62136 | 19.46628 | 38172 ft | 453 kts | 324° |
| 2026-05-03 20:45 | 43.67075 | 19.41228 | 38170 ft | 453 kts | 324° |
| 2026-05-03 20:46 | 43.72012 | 19.35820 | 38147 ft | 453 kts | 324° |
| 2026-05-03 20:46 | 43.76946 | 19.30404 | 38165 ft | 452 kts | 324° |
| 2026-05-03 20:47 | 43.81839 | 19.25021 | 38163 ft | 452 kts | 324° |
| 2026-05-03 20:47 | 43.86795 | 19.19559 | 38163 ft | 452 kts | 324° |
| 2026-05-03 20:48 | 43.91714 | 19.14123 | 38157 ft | 452 kts | 324° |
| 2026-05-03 20:48 | 43.96626 | 19.08684 | 38154 ft | 451 kts | 324° |
| 2026-05-03 20:49 | 44.01491 | 19.03285 | 38154 ft | 450 kts | 324° |
| 2026-05-03 20:49 | 44.06382 | 18.97846 | 38154 ft | 451 kts | 324° |
| 2026-05-03 20:50 | 44.11274 | 18.92396 | 38153 ft | 451 kts | 324° |
| 2026-05-03 20:50 | 44.16162 | 18.86937 | 38129 ft | 450 kts | 324° |
| 2026-05-03 20:51 | 44.21047 | 18.81468 | 38154 ft | 450 kts | 324° |
| 2026-05-03 20:51 | 44.25928 | 18.75992 | 38154 ft | 451 kts | 324° |
| 2026-05-03 20:52 | 44.30815 | 18.70499 | 38154 ft | 451 kts | 324° |
| 2026-05-03 20:52 | 44.35697 | 18.64998 | 38155 ft | 451 kts | 324° |
| 2026-05-03 20:53 | 44.40578 | 18.59486 | 38155 ft | 451 kts | 324° |
| 2026-05-03 20:53 | 44.45457 | 18.53964 | 38160 ft | 451 kts | 324° |
| 2026-05-03 20:54 | 44.50342 | 18.48424 | 38154 ft | 452 kts | 324° |
| 2026-05-03 20:54 | 44.57675 | 18.40082 | 38153 ft | 452 kts | 324° |
| 2026-05-03 20:55 | 44.62554 | 18.34516 | 38150 ft | 452 kts | 324° |
| 2026-05-03 20:55 | 44.67420 | 18.28953 | 38148 ft | 451 kts | 324° |
| 2026-05-03 20:56 | 44.72291 | 18.23373 | 38145 ft | 451 kts | 324° |
| 2026-05-03 20:56 | 44.77159 | 18.17783 | 38137 ft | 452 kts | 324° |
| 2026-05-03 20:57 | 44.81987 | 18.12227 | 38122 ft | 451 kts | 323° |
| 2026-05-03 20:57 | 44.86842 | 18.06627 | 38143 ft | 450 kts | 323° |
| 2026-05-03 20:58 | 44.91682 | 18.01030 | 38143 ft | 450 kts | 323° |
| 2026-05-03 20:58 | 44.96553 | 17.95387 | 38144 ft | 450 kts | 323° |
| 2026-05-03 20:59 | 45.01361 | 17.89804 | 38140 ft | 451 kts | 323° |
| 2026-05-03 20:59 | 45.06204 | 17.84175 | 38139 ft | 451 kts | 323° |
| 2026-05-03 21:00 | 45.09450 | 17.80428 | 38141 ft | 450 kts | 323° |
| 2026-05-03 21:00 | 45.15941 | 17.72921 | 38138 ft | 450 kts | 323° |
| 2026-05-03 21:01 | 45.20755 | 17.67335 | 38134 ft | 450 kts | 323° |
| 2026-05-03 21:01 | 45.25597 | 17.61702 | 38106 ft | 450 kts | 323° |
| 2026-05-03 21:02 | 45.30440 | 17.56057 | 38123 ft | 451 kts | 323° |
| 2026-05-03 21:02 | 45.35285 | 17.50395 | 38123 ft | 451 kts | 323° |
| 2026-05-03 21:03 | 45.40126 | 17.44725 | 38134 ft | 451 kts | 323° |
| 2026-05-03 21:03 | 45.44964 | 17.39046 | 38135 ft | 451 kts | 323° |
| 2026-05-03 21:04 | 45.49799 | 17.33357 | 38118 ft | 451 kts | 322° |
| 2026-05-03 21:04 | 45.54647 | 17.27640 | 38120 ft | 453 kts | 322° |
| 2026-05-03 21:05 | 45.59497 | 17.21907 | 38117 ft | 453 kts | 322° |
| 2026-05-03 21:05 | 45.64346 | 17.16161 | 38119 ft | 453 kts | 322° |
| 2026-05-03 21:06 | 45.69192 | 17.10406 | 38115 ft | 453 kts | 322° |
| 2026-05-03 21:06 | 45.74044 | 17.04632 | 38113 ft | 455 kts | 321° |
| 2026-05-03 21:07 | 45.78909 | 16.98827 | 38110 ft | 455 kts | 321° |
| 2026-05-03 21:07 | 45.83771 | 16.93012 | 38110 ft | 455 kts | 321° |
| 2026-05-03 21:08 | 45.88635 | 16.87182 | 38105 ft | 455 kts | 321° |
| 2026-05-03 21:08 | 45.93463 | 16.81381 | 38092 ft | 455 kts | 321° |
| 2026-05-03 21:09 | 45.97540 | 16.76471 | 38105 ft | 457 kts | 321° |
| 2026-05-03 21:09 | 46.02408 | 16.70596 | 38105 ft | 458 kts | 321° |
| 2026-05-03 21:10 | 46.08082 | 16.63730 | 38104 ft | 458 kts | 320° |
| 2026-05-03 21:10 | 46.12165 | 16.58778 | 38004 ft | 458 kts | 320° |
| 2026-05-03 21:11 | 46.14597 | 16.55824 | 37741 ft | 457 kts | 320° |
| 2026-05-03 21:11 | 46.17029 | 16.52867 | 37455 ft | 457 kts | 320° |
| 2026-05-03 21:11 | 46.19462 | 16.49904 | 37196 ft | 458 kts | 320° |
| 2026-05-03 21:11 | 46.21868 | 16.46970 | 36931 ft | 460 kts | 320° |
| 2026-05-03 21:12 | 46.24313 | 16.43985 | 36675 ft | 460 kts | 320° |
| 2026-05-03 21:12 | 46.26756 | 16.41000 | 36408 ft | 461 kts | 320° |
| 2026-05-03 21:12 | 46.29202 | 16.38008 | 36072 ft | 459 kts | 320° |
| 2026-05-03 21:12 | 46.31631 | 16.35031 | 35486 ft | 457 kts | 320° |
| 2026-05-03 21:13 | 46.34054 | 16.32060 | 34812 ft | 456 kts | 320° |
| 2026-05-03 21:13 | 46.36585 | 16.29294 | 34070 ft | 456 kts | 329° |
| 2026-05-03 21:13 | 46.39444 | 16.27321 | 33237 ft | 456 kts | 342° |
| 2026-05-03 21:13 | 46.42530 | 16.26262 | 32491 ft | 456 kts | 349° |
| 2026-05-03 21:14 | 46.45640 | 16.25516 | 31968 ft | 451 kts | 350° |
| 2026-05-03 21:14 | 46.48723 | 16.24806 | 31428 ft | 447 kts | 350° |
| 2026-05-03 21:14 | 46.51782 | 16.24095 | 30883 ft | 443 kts | 350° |
| 2026-05-03 21:14 | 46.54812 | 16.23385 | 30340 ft | 440 kts | 350° |
| 2026-05-03 21:15 | 46.57825 | 16.22674 | 29717 ft | 436 kts | 350° |
| 2026-05-03 21:15 | 46.60804 | 16.21969 | 29186 ft | 432 kts | 350° |
| 2026-05-03 21:15 | 46.63751 | 16.21269 | 28656 ft | 427 kts | 350° |
| 2026-05-03 21:15 | 46.66667 | 16.20575 | 28134 ft | 422 kts | 350° |
| 2026-05-03 21:16 | 46.69553 | 16.19887 | 27616 ft | 418 kts | 350° |
| 2026-05-03 21:16 | 46.72413 | 16.19205 | 27104 ft | 414 kts | 350° |
| 2026-05-03 21:16 | 46.75243 | 16.18529 | 26589 ft | 411 kts | 350° |
| 2026-05-03 21:16 | 46.78055 | 16.17857 | 26080 ft | 408 kts | 350° |
| 2026-05-03 21:17 | 46.80847 | 16.17188 | 25575 ft | 405 kts | 350° |
| 2026-05-03 21:17 | 46.83622 | 16.16523 | 25063 ft | 403 kts | 350° |
| 2026-05-03 21:17 | 46.86383 | 16.15861 | 24552 ft | 401 kts | 350° |
| 2026-05-03 21:17 | 46.89130 | 16.15201 | 24042 ft | 399 kts | 350° |
| 2026-05-03 21:18 | 46.91867 | 16.14543 | 23517 ft | 398 kts | 350° |
| 2026-05-03 21:18 | 46.94592 | 16.13888 | 22949 ft | 395 kts | 351° |
| 2026-05-03 21:18 | 46.97295 | 16.13238 | 22428 ft | 392 kts | 351° |
| 2026-05-03 21:18 | 46.99978 | 16.12591 | 21932 ft | 389 kts | 351° |
| 2026-05-03 21:19 | 47.02639 | 16.11948 | 21400 ft | 386 kts | 351° |
| 2026-05-03 21:19 | 47.05281 | 16.11308 | 20885 ft | 384 kts | 351° |
| 2026-05-03 21:19 | 47.07911 | 16.10672 | 20371 ft | 382 kts | 351° |
| 2026-05-03 21:19 | 47.10525 | 16.10039 | 19864 ft | 380 kts | 351° |
| 2026-05-03 21:20 | 47.13132 | 16.09407 | 19343 ft | 379 kts | 351° |
| 2026-05-03 21:20 | 47.15731 | 16.08776 | 18829 ft | 378 kts | 351° |
| 2026-05-03 21:20 | 47.18324 | 16.08147 | 18296 ft | 377 kts | 351° |
| 2026-05-03 21:20 | 47.20877 | 16.07526 | 17749 ft | 376 kts | 351° |
| 2026-05-03 21:21 | 47.23450 | 16.06900 | 17228 ft | 374 kts | 351° |
| 2026-05-03 21:21 | 47.26014 | 16.06276 | 16714 ft | 372 kts | 351° |
| 2026-05-03 21:21 | 47.28562 | 16.05655 | 16200 ft | 371 kts | 351° |
| 2026-05-03 21:21 | 47.31099 | 16.05036 | 15689 ft | 369 kts | 351° |
| 2026-05-03 21:22 | 47.33634 | 16.04417 | 15175 ft | 368 kts | 351° |
| 2026-05-03 21:22 | 47.36174 | 16.03981 | 14662 ft | 367 kts | 360° |
| 2026-05-03 21:22 | 47.38688 | 16.04485 | 14160 ft | 365 kts | 16° |
| 2026-05-03 21:22 | 47.41106 | 16.05604 | 13628 ft | 364 kts | 19° |
| 2026-05-03 21:23 | 47.43493 | 16.06807 | 13094 ft | 362 kts | 20° |
| 2026-05-03 21:23 | 47.45872 | 16.08007 | 12580 ft | 360 kts | 19° |
| 2026-05-03 21:23 | 47.48235 | 16.09191 | 12096 ft | 358 kts | 20° |
| 2026-05-03 21:23 | 47.50589 | 16.10367 | 11581 ft | 356 kts | 19° |
| 2026-05-03 21:24 | 47.52932 | 16.11535 | 11088 ft | 354 kts | 19° |
| 2026-05-03 21:24 | 47.55261 | 16.12695 | 10635 ft | 351 kts | 19° |
| 2026-05-03 21:24 | 47.57528 | 16.13824 | 10488 ft | 336 kts | 19° |
| 2026-05-03 21:24 | 47.59697 | 16.14905 | 10359 ft | 322 kts | 19° |
| 2026-05-03 21:25 | 47.61778 | 16.15943 | 10230 ft | 309 kts | 20° |
| 2026-05-03 21:25 | 47.63778 | 16.16941 | 10101 ft | 298 kts | 19° |
| 2026-05-03 21:25 | 47.65719 | 16.17912 | 9894 ft | 295 kts | 19° |
| 2026-05-03 21:25 | 47.67691 | 16.18898 | 9516 ft | 302 kts | 19° |
| 2026-05-03 21:26 | 47.69685 | 16.19895 | 9131 ft | 303 kts | 19° |
| 2026-05-03 21:26 | 47.71670 | 16.20891 | 8788 ft | 300 kts | 19° |
| 2026-05-03 21:26 | 47.73637 | 16.21876 | 8459 ft | 298 kts | 19° |
| 2026-05-03 21:26 | 47.75572 | 16.22960 | 8121 ft | 298 kts | 28° |
| 2026-05-03 21:27 | 47.77167 | 16.24854 | 7921 ft | 293 kts | 53° |
| 2026-05-03 21:27 | 47.78047 | 16.27505 | 7574 ft | 285 kts | 79° |
| 2026-05-03 21:27 | 47.78502 | 16.30367 | 7200 ft | 285 kts | 78° |
| 2026-05-03 21:27 | 47.79051 | 16.33198 | 6848 ft | 284 kts | 75° |
| 2026-05-03 21:28 | 47.79982 | 16.35788 | 6483 ft | 288 kts | 51° |
| 2026-05-03 21:28 | 47.81582 | 16.37547 | 6157 ft | 290 kts | 24° |
| 2026-05-03 21:28 | 47.83511 | 16.38234 | 5904 ft | 290 kts | 7° |
| 2026-05-03 21:28 | 47.85539 | 16.38588 | 5644 ft | 289 kts | 7° |
| 2026-05-03 21:29 | 47.87507 | 16.38964 | 5399 ft | 290 kts | 6° |
| 2026-05-03 21:29 | 47.89509 | 16.39330 | 5168 ft | 289 kts | 5° |
| 2026-05-03 21:29 | 47.91503 | 16.39676 | 5001 ft | 288 kts | 6° |
| 2026-05-03 21:29 | 47.93494 | 16.40011 | 4979 ft | 288 kts | 5° |
| 2026-05-03 21:30 | 47.95489 | 16.40342 | 4984 ft | 288 kts | 5° |
| 2026-05-03 21:30 | 47.97482 | 16.40668 | 4986 ft | 288 kts | 5° |
| 2026-05-03 21:30 | 47.99477 | 16.40994 | 4980 ft | 288 kts | 5° |
| 2026-05-03 21:30 | 48.01467 | 16.41318 | 4982 ft | 288 kts | 5° |
| 2026-05-03 21:31 | 48.03463 | 16.41642 | 4982 ft | 289 kts | 5° |
| 2026-05-03 21:31 | 48.05458 | 16.41966 | 4992 ft | 288 kts | 5° |
| 2026-05-03 21:31 | 48.07447 | 16.42289 | 4966 ft | 288 kts | 5° |
| 2026-05-03 21:31 | 48.09441 | 16.42613 | 4967 ft | 288 kts | 5° |
| 2026-05-03 21:32 | 48.11430 | 16.42937 | 4965 ft | 288 kts | 5° |
| 2026-05-03 21:32 | 48.13422 | 16.43260 | 4968 ft | 288 kts | 6° |
| 2026-05-03 21:32 | 48.15420 | 16.43586 | 4967 ft | 289 kts | 6° |
| 2026-05-03 21:32 | 48.17425 | 16.43911 | 4974 ft | 290 kts | 6° |
| 2026-05-03 21:33 | 48.19424 | 16.44237 | 4967 ft | 289 kts | 6° |
| 2026-05-03 21:33 | 48.21423 | 16.44565 | 4967 ft | 289 kts | 6° |
| 2026-05-03 21:33 | 48.23425 | 16.44893 | 4967 ft | 289 kts | 6° |
| 2026-05-03 21:33 | 48.25426 | 16.45220 | 4967 ft | 289 kts | 6° |
| 2026-05-03 21:34 | 48.27425 | 16.45548 | 4967 ft | 289 kts | 6° |
| 2026-05-03 21:34 | 48.29427 | 16.45876 | 4969 ft | 289 kts | 6° |
| 2026-05-03 21:34 | 48.31429 | 16.46205 | 4968 ft | 289 kts | 6° |
| 2026-05-03 21:34 | 48.33428 | 16.46533 | 4969 ft | 289 kts | 6° |
| 2026-05-03 21:35 | 48.35425 | 16.46860 | 4968 ft | 286 kts | 6° |
| 2026-05-03 21:35 | 48.37328 | 16.47246 | 4959 ft | 268 kts | 13° |
| 2026-05-03 21:35 | 48.38929 | 16.48400 | 4961 ft | 246 kts | 43° |
| 2026-05-03 21:35 | 48.39872 | 16.50354 | 4955 ft | 221 kts | 73° |
| 2026-05-03 21:36 | 48.40115 | 16.52527 | 4972 ft | 207 kts | 98° |
| 2026-05-03 21:36 | 48.39760 | 16.54564 | 4975 ft | 199 kts | 122° |
| 2026-05-03 21:36 | 48.38923 | 16.56164 | 4971 ft | 193 kts | 143° |
| 2026-05-03 21:36 | 48.37777 | 16.57129 | 4966 ft | 183 kts | 164° |
| 2026-05-03 21:37 | 48.36587 | 16.57371 | 4986 ft | 166 kts | 182° |
| 2026-05-03 21:37 | 48.35466 | 16.57019 | 4977 ft | 166 kts | 199° |
| 2026-05-03 21:37 | 48.34502 | 16.56154 | 4975 ft | 157 kts | 217° |
| 2026-05-03 21:37 | 48.33800 | 16.54925 | 4871 ft | 156 kts | 232° |
| 2026-05-03 21:38 | 48.33369 | 16.53422 | 4686 ft | 158 kts | 247° |
| 2026-05-03 21:38 | 48.32961 | 16.51904 | 4496 ft | 156 kts | 238° |
| 2026-05-03 21:38 | 48.32441 | 16.50479 | 4286 ft | 154 kts | 232° |
| 2026-05-03 21:38 | 48.31562 | 16.49759 | 4105 ft | 146 kts | 180° |
| 2026-05-03 21:39 | 48.30570 | 16.49972 | 3945 ft | 144 kts | 169° |
| 2026-05-03 21:39 | 48.29602 | 16.50346 | 3783 ft | 143 kts | 168° |
| 2026-05-03 21:39 | 48.28648 | 16.50740 | 3613 ft | 141 kts | 167° |
| 2026-05-03 21:39 | 48.27710 | 16.51140 | 3446 ft | 138 kts | 167° |
| 2026-05-03 21:40 | 48.26814 | 16.51521 | 3294 ft | 131 kts | 168° |
| 2026-05-03 21:40 | 48.25963 | 16.51880 | 3159 ft | 127 kts | 168° |
| 2026-05-03 21:40 | 48.25115 | 16.52238 | 3029 ft | 127 kts | 168° |
| 2026-05-03 21:40 | 48.24270 | 16.52595 | 2974 ft | 126 kts | 168° |
| 2026-05-03 21:41 | 48.23422 | 16.52954 | 2894 ft | 127 kts | 168° |
| 2026-05-03 21:41 | 48.22574 | 16.53316 | 2737 ft | 126 kts | 168° |
| 2026-05-03 21:41 | 48.21735 | 16.53674 | 2559 ft | 125 kts | 168° |
| 2026-05-03 21:41 | 48.20909 | 16.54026 | 2399 ft | 122 kts | 167° |
| 2026-05-03 21:42 | 48.20099 | 16.54370 | 2242 ft | 121 kts | 167° |
| 2026-05-03 21:42 | 48.19293 | 16.54713 | 2082 ft | 120 kts | 167° |
| 2026-05-03 21:42 | 48.18491 | 16.55053 | 1927 ft | 120 kts | 167° |
| 2026-05-03 21:42 | 48.17694 | 16.55393 | 1762 ft | 118 kts | 167° |
| 2026-05-03 21:43 | 48.16909 | 16.55726 | 1610 ft | 118 kts | 167° |
| 2026-05-03 21:43 | 48.16327 | 16.55972 | 1484 ft | 119 kts | 166° |
| 2026-05-03 21:43 | 48.15524 | 16.56314 | 1336 ft | 121 kts | 164° |
| 2026-05-03 21:43 | 48.14705 | 16.56661 | 1173 ft | 124 kts | 163° |
| 2026-05-03 21:44 | 48.13865 | 16.57018 | 1012 ft | 127 kts | 163° |
| 2026-05-03 21:44 | 48.13010 | 16.57382 | 845 ft | 128 kts | 162° |
| 2026-05-03 21:44 | 48.12146 | 16.57742 | 687 ft | 130 kts | 162° |
| 2026-05-03 21:44 | 48.11300 | 16.58105 | 623 ft | 117 kts | 165° |
| 2026-05-03 21:45 | 48.10773 | 16.58327 | 625 ft | 40 kts | 165° |
| 2026-05-03 21:45 | 48.10519 | 16.58434 | 623 ft | 33 kts | 165° |
| 2026-05-03 21:45 | 48.10341 | 16.58468 | 620 ft | 23 kts | 185° |
| 2026-05-03 21:45 | 48.10219 | 16.58433 | 624 ft | 14 kts | 194° |
| 2026-05-03 21:46 | 48.10126 | 16.58391 | 618 ft | 11 kts | 217° |
| 2026-05-03 21:46 | 48.10094 | 16.58276 | 621 ft | 13 kts | 263° |
| 2026-05-03 21:46 | 48.10148 | 16.58174 | 627 ft | 15 kts | 340° |
| 2026-05-03 21:46 | 48.10270 | 16.58122 | 621 ft | 22 kts | 343° |
| 2026-05-03 21:47 | 48.10427 | 16.58053 | 628 ft | 25 kts | 343° |
| 2026-05-03 21:47 | 48.10585 | 16.57987 | 626 ft | 22 kts | 344° |
| 2026-05-03 21:47 | 48.10731 | 16.57926 | 626 ft | 23 kts | 344° |
| 2026-05-03 21:47 | 48.10883 | 16.57862 | 629 ft | 22 kts | 344° |
| 2026-05-03 21:48 | 48.11028 | 16.57802 | 627 ft | 21 kts | 345° |
| 2026-05-03 21:48 | 48.11146 | 16.57730 | 624 ft | 18 kts | 316° |
| 2026-05-03 21:48 | 48.11211 | 16.57554 | 616 ft | 21 kts | 296° |
| 2026-05-03 21:48 | 48.11274 | 16.57359 | 626 ft | 21 kts | 296° |
| 2026-05-03 21:49 | 48.11339 | 16.57158 | 621 ft | 21 kts | 296° |
| 2026-05-03 21:49 | 48.11403 | 16.56960 | 627 ft | 21 kts | 296° |
| 2026-05-03 21:49 | 48.11465 | 16.56770 | 629 ft | 20 kts | 296° |
| 2026-05-03 21:49 | 48.11519 | 16.56602 | 626 ft | 17 kts | 296° |
| 2026-05-03 21:50 | 48.11571 | 16.56441 | 625 ft | 17 kts | 295° |
| 2026-05-03 21:50 | 48.11617 | 16.56305 | 626 ft | 11 kts | 300° |
| 2026-05-03 21:50 | 48.11675 | 16.56241 | 629 ft | 10 kts | 336° |
| 2026-05-03 21:50 | 48.11730 | 16.56213 | 625 ft | 6 kts | 343° |
| 2026-05-03 21:51 | 48.11764 | 16.56197 | 622 ft | 5 kts | 343° |
| 2026-05-03 21:51 | 48.11772 | 16.56194 | 625 ft | 0 kts | 343° |